Time;durP1;ratioP1;P1;durP2;ratioP2;P2;SDS_P1;SDS_P2;PMS_P1;PMS_P2;Temp;Humidity;BMP_temperature;BMP_pressure;BME280_temperature;BME280_humidity;BME280_pressure;Samples;Min_cycle;Max_cycle;Signal;HPM_P1;HPM_P2
2021/03/18 00:01:47;;;;;;;40.38;22.33;;;0.40;99.90;;;;;;4974864;28;20077;-85
2021/03/18 00:04:17;;;;;;;47.15;23.20;;;0.50;99.90;;;;;;4975344;28;20472;-84
2021/03/18 00:06:46;;;;;;;50.67;26.55;;;0.60;99.90;;;;;;4958058;28;20129;-83
2021/03/18 00:09:14;;;;;;;46.92;23.83;;;0.70;99.90;;;;;;4957954;28;20426;-85
2021/03/18 00:11:43;;;;;;;44.08;24.63;;;0.70;99.90;;;;;;4974802;28;20086;-85
2021/03/18 00:14:15;;;;;;;46.35;24.77;;;0.70;99.90;;;;;;4974708;28;20074;-85
2021/03/18 00:16:41;;;;;;;28.80;15.52;;;0.80;99.90;;;;;;4975066;28;20089;-85
2021/03/18 00:19:08;;;;;;;27.92;14.38;;;0.90;99.90;;;;;;4957779;28;20086;-85
2021/03/18 00:21:34;;;;;;;19.08;12.68;;;0.90;99.90;;;;;;4974729;28;20105;-84
2021/03/18 00:24:01;;;;;;;19.92;12.73;;;0.90;99.90;;;;;;4957813;28;20055;-84
2021/03/18 00:26:29;;;;;;;24.55;13.85;;;0.90;99.90;;;;;;4957977;28;20086;-85
2021/03/18 00:28:57;;;;;;;22.75;13.38;;;0.90;99.90;;;;;;4974894;28;20094;-85
2021/03/18 00:31:28;;;;;;;23.17;13.68;;;0.90;99.90;;;;;;4973699;28;20130;-85
2021/03/18 00:33:55;;;;;;;26.00;14.65;;;1.00;99.90;;;;;;4973623;28;20054;-85
2021/03/18 00:36:21;;;;;;;21.58;13.18;;;0.90;99.90;;;;;;4957486;28;20138;-85
2021/03/18 00:38:48;;;;;;;22.35;13.73;;;0.90;99.90;;;;;;4957502;28;20137;-85
2021/03/18 00:41:14;;;;;;;25.40;12.95;;;0.90;99.90;;;;;;4957340;28;20195;-85
2021/03/18 00:43:41;;;;;;;36.13;19.60;;;0.90;99.90;;;;;;4974802;28;20114;-85
2021/03/18 00:46:08;;;;;;;39.00;22.02;;;0.80;99.90;;;;;;4957523;28;20447;-85
2021/03/18 00:48:35;;;;;;;40.45;23.30;;;0.80;99.90;;;;;;4974414;28;20051;-85
2021/03/18 00:51:08;;;;;;;41.30;22.60;;;0.70;99.90;;;;;;4958302;28;20519;-86
2021/03/18 00:53:40;;;;;;;41.28;22.70;;;0.80;99.90;;;;;;4978405;28;20141;-85
2021/03/18 00:56:12;;;;;;;39.27;21.63;;;0.80;99.90;;;;;;4978879;28;20050;-85
2021/03/18 00:58:40;;;;;;;41.65;22.30;;;0.80;99.90;;;;;;4977145;28;20043;-85
2021/03/18 01:01:07;;;;;;;40.80;22.42;;;0.80;99.90;;;;;;4963014;28;20055;-86
2021/03/18 01:03:40;;;;;;;40.15;22.65;;;0.70;99.90;;;;;;4961522;28;20472;-86
2021/03/18 01:06:42;;;;;;;36.67;21.83;;;0.90;99.90;;;;;;4986181;28;20058;-86
2021/03/18 01:09:09;;;;;;;35.17;20.42;;;0.90;99.90;;;;;;4906725;29;20088;-86
2021/03/18 01:11:37;;;;;;;37.05;22.95;;;0.90;99.90;;;;;;4965683;28;20146;-86
2021/03/18 01:14:06;;;;;;;34.50;20.77;;;1.00;99.90;;;;;;4961227;28;20058;-86
2021/03/18 01:16:37;;;;;;;36.88;21.10;;;1.00;99.90;;;;;;4978207;28;20082;-86
2021/03/18 01:19:07;;;;;;;34.25;19.67;;;0.90;99.90;;;;;;4961300;28;20058;-86
2021/03/18 01:21:43;;;;;;;41.50;21.20;;;1.00;99.90;;;;;;4977930;28;20153;-86
2021/03/18 01:24:11;;;;;;;37.50;20.73;;;1.00;99.90;;;;;;4961193;28;20059;-86
2021/03/18 01:26:38;;;;;;;37.45;20.98;;;0.90;99.90;;;;;;4961107;28;20133;-86
2021/03/18 01:29:05;;;;;;;41.08;21.38;;;1.00;99.90;;;;;;4978436;28;20085;-87
2021/03/18 01:31:32;;;;;;;42.05;21.95;;;0.90;99.90;;;;;;4961172;28;20459;-87
2021/03/18 01:33:59;;;;;;;44.38;23.00;;;0.80;99.90;;;;;;4961021;28;20043;-86
2021/03/18 01:36:27;;;;;;;42.58;23.02;;;0.80;99.90;;;;;;4960911;28;20511;-86
2021/03/18 01:38:54;;;;;;;38.20;21.60;;;0.80;99.90;;;;;;4978136;28;20068;-86
2021/03/18 01:41:24;;;;;;;42.67;22.73;;;0.90;99.90;;;;;;4960959;28;20109;-87
2021/03/18 01:43:50;;;;;;;50.35;24.13;;;0.90;99.90;;;;;;4961333;28;20038;-87
2021/03/18 01:46:17;;;;;;;41.63;22.73;;;0.90;99.90;;;;;;4977905;28;20059;-87
2021/03/18 01:48:44;;;;;;;42.22;23.10;;;0.80;99.90;;;;;;4960956;28;20054;-87
2021/03/18 01:51:14;;;;;;;40.55;22.15;;;0.90;99.90;;;;;;4977057;28;20082;-86
2021/03/18 01:53:40;;;;;;;45.85;23.27;;;1.00;99.90;;;;;;4960774;28;20074;-86
2021/03/18 01:56:07;;;;;;;39.15;22.63;;;0.90;99.90;;;;;;4960880;28;20069;-87
2021/03/18 01:58:36;;;;;;;43.17;22.55;;;0.90;99.90;;;;;;4977663;28;20142;-87
2021/03/18 02:01:09;;;;;;;41.22;22.45;;;0.90;99.90;;;;;;4977371;28;20137;-87
2021/03/18 02:03:36;;;;;;;42.75;22.55;;;0.90;99.90;;;;;;4975775;28;20492;-87
2021/03/18 02:06:04;;;;;;;38.08;22.10;;;0.90;99.90;;;;;;4977391;28;20125;-86
2021/03/18 02:08:30;;;;;;;37.80;21.60;;;0.90;99.90;;;;;;4960614;28;20047;-87
2021/03/18 02:10:56;;;;;;;42.33;23.02;;;1.00;99.90;;;;;;4960458;28;20097;-87
2021/03/18 02:13:24;;;;;;;37.92;21.30;;;1.10;99.90;;;;;;4977683;28;20503;-86
2021/03/18 02:16:06;;;;;;;34.10;20.65;;;1.10;99.90;;;;;;4977911;28;20133;-87
2021/03/18 02:18:50;;;;;;;36.20;21.50;;;1.20;99.90;;;;;;4960129;28;20419;-86
2021/03/18 02:21:35;;;;;;;43.53;21.20;;;1.20;99.90;;;;;;4966208;28;20070;-87
2021/03/18 02:24:34;;;;;;;36.28;21.38;;;1.10;99.90;;;;;;4985670;28;20179;-86
2021/03/18 02:27:42;;;;;;;43.25;21.55;;;1.10;99.90;;;;;;4976992;28;20046;-86
2021/03/18 02:30:26;;;;;;;39.40;20.77;;;1.20;99.90;;;;;;4960122;28;20187;-87
2021/03/18 02:33:21;;;;;;;37.72;21.90;;;1.20;99.90;;;;;;4976050;28;20130;-87
2021/03/18 02:35:58;;;;;;;33.00;20.65;;;1.10;99.90;;;;;;4976615;28;20058;-87
2021/03/18 02:38:32;;;;;;;41.58;21.48;;;1.30;99.90;;;;;;4976783;28;20138;-87
2021/03/18 02:41:05;;;;;;;38.10;21.38;;;1.30;99.90;;;;;;4976718;28;20161;-87
2021/03/18 02:43:40;;;;;;;34.83;21.15;;;1.30;99.90;;;;;;4975818;28;20122;-87
2021/03/18 02:46:08;;;;;;;33.80;20.45;;;1.30;99.90;;;;;;4959582;28;20480;-87
2021/03/18 02:48:37;;;;;;;35.22;19.90;;;1.30;99.90;;;;;;4960032;28;20138;-87
2021/03/18 02:51:10;;;;;;;36.75;19.67;;;1.20;99.90;;;;;;4959711;28;20109;-86
2021/03/18 02:53:39;;;;;;;33.53;19.63;;;1.30;99.90;;;;;;4976151;28;20054;-87
2021/03/18 02:56:08;;;;;;;35.67;19.80;;;1.40;99.90;;;;;;4959415;28;20082;-87
2021/03/18 02:58:37;;;;;;;33.47;19.20;;;1.40;99.90;;;;;;4975602;28;20072;-87
2021/03/18 03:01:05;;;;;;;28.65;18.83;;;1.50;99.90;;;;;;4959336;28;20051;-87
2021/03/18 03:03:42;;;;;;;37.95;21.05;;;1.50;99.90;;;;;;4976146;28;20051;-87
2021/03/18 03:06:11;;;;;;;30.52;20.33;;;1.40;99.90;;;;;;4951472;28;20050;-87
2021/03/18 03:08:39;;;;;;;32.65;18.98;;;1.30;99.90;;;;;;4959369;28;20051;-87
2021/03/18 03:11:05;;;;;;;31.40;19.60;;;1.40;99.90;;;;;;4959447;28;20085;-87
2021/03/18 03:13:36;;;;;;;29.73;19.02;;;1.40;99.90;;;;;;4975991;28;20129;-87
2021/03/18 03:16:05;;;;;;;28.98;19.23;;;1.40;99.90;;;;;;4976068;28;20050;-87
2021/03/18 03:18:33;;;;;;;33.45;20.30;;;1.40;99.90;;;;;;4975763;28;20563;-87
2021/03/18 03:21:01;;;;;;;35.33;19.27;;;1.30;99.90;;;;;;4958443;28;20088;-87
2021/03/18 03:23:29;;;;;;;32.65;19.67;;;1.40;99.90;;;;;;4976075;28;20074;-87
2021/03/18 03:25:59;;;;;;;34.40;19.83;;;1.40;99.90;;;;;;4976126;28;20137;-87
2021/03/18 03:28:28;;;;;;;37.05;20.27;;;1.40;99.90;;;;;;4976144;28;20055;-87
2021/03/18 03:30:56;;;;;;;36.30;20.70;;;1.40;99.90;;;;;;4959095;28;20505;-87
2021/03/18 03:33:23;;;;;;;29.05;18.50;;;1.40;99.90;;;;;;4975622;28;20291;-87
2021/03/18 03:35:50;;;;;;;32.58;20.83;;;1.50;99.90;;;;;;4975582;28;20054;-87
2021/03/18 03:38:16;;;;;;;35.55;19.60;;;1.50;99.90;;;;;;4975524;28;20496;-87
2021/03/18 03:40:43;;;;;;;31.17;18.85;;;1.40;99.90;;;;;;4959971;28;20046;-87
2021/03/18 03:43:10;;;;;;;30.13;19.63;;;1.40;99.90;;;;;;4958721;28;20057;-87
2021/03/18 03:45:37;;;;;;;32.25;19.42;;;1.50;99.90;;;;;;4975637;28;20138;-87
2021/03/18 03:48:04;;;;;;;31.30;19.42;;;1.50;99.90;;;;;;4975484;28;20090;-87
2021/03/18 03:50:30;;;;;;;30.00;19.23;;;1.50;99.90;;;;;;4975227;28;20053;-87
2021/03/18 03:53:14;;;;;;;34.63;20.23;;;1.60;99.90;;;;;;4958298;28;20055;-87
2021/03/18 03:55:53;;;;;;;32.00;20.30;;;1.50;99.90;;;;;;4975532;28;20082;-87
2021/03/18 03:58:38;;;;;;;32.22;20.08;;;1.50;99.90;;;;;;4958274;28;20503;-87
2021/03/18 04:01:09;;;;;;;31.40;19.92;;;1.60;99.90;;;;;;4958615;28;20058;-87
2021/03/18 04:03:36;;;;;;;30.20;18.65;;;1.60;99.90;;;;;;4958660;28;20057;-87
2021/03/18 04:06:04;;;;;;;29.08;18.45;;;1.60;99.90;;;;;;4958334;28;20053;-86
2021/03/18 04:08:34;;;;;;;28.83;18.85;;;1.60;99.90;;;;;;4975283;28;20135;-87
2021/03/18 04:11:02;;;;;;;27.45;17.80;;;1.70;99.90;;;;;;4975433;28;20055;-87
2021/03/18 04:13:30;;;;;;;26.60;17.10;;;1.70;99.90;;;;;;4958193;28;20137;-86
2021/03/18 04:15:59;;;;;;;30.25;17.70;;;1.70;99.90;;;;;;4958137;28;20418;-87
2021/03/18 04:18:36;;;;;;;26.48;17.30;;;1.70;99.90;;;;;;4958418;28;20130;-87
2021/03/18 04:21:05;;;;;;;26.60;16.88;;;1.70;99.90;;;;;;4958285;28;20050;-87
2021/03/18 04:23:32;;;;;;;25.08;17.17;;;1.70;99.90;;;;;;4958007;28;20129;-86
2021/03/18 04:25:59;;;;;;;28.05;16.67;;;1.70;99.90;;;;;;4957620;28;20475;-87
2021/03/18 04:28:32;;;;;;;29.75;17.10;;;1.70;99.90;;;;;;4958173;28;20487;-87
2021/03/18 04:30:59;;;;;;;24.80;16.35;;;1.60;99.90;;;;;;4974199;28;20490;-87
2021/03/18 04:33:28;;;;;;;23.75;15.88;;;1.60;99.90;;;;;;4957911;28;20057;-86
2021/03/18 04:35:57;;;;;;;26.00;17.00;;;1.50;99.90;;;;;;4974883;28;20121;-87
2021/03/18 04:38:25;;;;;;;29.83;17.27;;;1.40;99.90;;;;;;4957920;28;20050;-87
2021/03/18 04:40:55;;;;;;;26.23;17.15;;;1.30;99.90;;;;;;4975306;28;20062;-87
2021/03/18 04:43:23;;;;;;;28.75;16.42;;;1.30;99.90;;;;;;4957591;28;20488;-87
2021/03/18 04:45:50;;;;;;;26.00;16.25;;;1.20;99.90;;;;;;4974887;28;20240;-86
2021/03/18 04:48:18;;;;;;;30.77;17.80;;;1.20;99.90;;;;;;4957734;28;20051;-86
2021/03/18 04:50:45;;;;;;;31.77;18.73;;;1.20;99.90;;;;;;4959173;28;20063;-87
2021/03/18 04:53:12;;;;;;;25.70;17.10;;;1.10;99.90;;;;;;4974197;28;20058;-86
2021/03/18 04:55:39;;;;;;;32.55;18.65;;;1.10;99.90;;;;;;4976680;28;20133;-87
2021/03/18 04:58:08;;;;;;;26.50;16.95;;;1.00;99.90;;;;;;4957661;28;20079;-87
2021/03/18 05:00:35;;;;;;;27.42;16.23;;;1.00;99.90;;;;;;4957393;28;20089;-87
2021/03/18 05:03:05;;;;;;;23.10;15.73;;;0.90;99.90;;;;;;4957629;28;20047;-87
2021/03/18 05:05:33;;;;;;;26.50;16.45;;;0.90;99.90;;;;;;4958099;28;20404;-87
2021/03/18 05:08:00;;;;;;;24.83;15.30;;;0.90;99.90;;;;;;4957726;28;20078;-86
2021/03/18 05:10:31;;;;;;;26.42;16.17;;;0.80;99.90;;;;;;4957948;28;20134;-87
2021/03/18 05:12:59;;;;;;;29.13;17.60;;;0.80;99.90;;;;;;4957454;28;20047;-87
2021/03/18 05:15:26;;;;;;;31.67;18.00;;;0.80;99.90;;;;;;4957478;28;20141;-85
2021/03/18 05:17:54;;;;;;;24.33;16.08;;;0.80;99.90;;;;;;4957603;28;20459;-86
2021/03/18 05:20:23;;;;;;;28.60;17.17;;;0.70;99.90;;;;;;4957607;28;20408;-85
2021/03/18 05:22:51;;;;;;;26.20;15.60;;;0.70;99.90;;;;;;4974422;28;20053;-87
2021/03/18 05:25:20;;;;;;;25.35;16.05;;;0.70;99.90;;;;;;4974393;28;20054;-86
2021/03/18 05:27:47;;;;;;;26.45;15.52;;;0.70;99.90;;;;;;4957086;28;20074;-87
2021/03/18 05:30:15;;;;;;;20.38;13.50;;;0.60;99.90;;;;;;4974387;28;20093;-86
2021/03/18 05:32:42;;;;;;;22.65;14.68;;;0.60;99.90;;;;;;4974352;28;20055;-87
2021/03/18 05:35:14;;;;;;;;;;;0.70;99.90;;;;;;4974603;28;20062;-86
2021/03/18 05:37:41;;;;;;;24.88;15.38;;;0.70;99.90;;;;;;4975606;28;19922;-86
2021/03/18 05:40:10;;;;;;;29.33;16.45;;;0.80;99.90;;;;;;4961000;28;20051;-87
2021/03/18 05:42:38;;;;;;;23.30;14.88;;;0.90;99.90;;;;;;4961053;28;20054;-87
2021/03/18 05:45:06;;;;;;;20.95;14.35;;;1.00;99.90;;;;;;4961102;28;20130;-87
2021/03/18 05:47:34;;;;;;;20.45;14.25;;;1.00;99.90;;;;;;4977907;28;20137;-86
2021/03/18 05:50:04;;;;;;;17.77;13.02;;;1.10;99.90;;;;;;4977756;28;20042;-86
2021/03/18 05:52:32;;;;;;;18.38;12.75;;;1.10;99.90;;;;;;4960488;28;20055;-87
2021/03/18 05:54:59;;;;;;;20.08;13.15;;;1.00;99.90;;;;;;4960463;28;20053;-87
2021/03/18 05:57:26;;;;;;;21.63;14.20;;;1.10;99.90;;;;;;4977618;28;20146;-86
2021/03/18 05:59:54;;;;;;;19.73;13.85;;;1.10;99.90;;;;;;4960715;28;20058;-86
2021/03/18 06:02:20;;;;;;;25.20;16.13;;;1.20;99.90;;;;;;4960554;28;20451;-87
2021/03/18 06:04:48;;;;;;;19.60;13.85;;;1.20;99.90;;;;;;4977845;28;20395;-85
2021/03/18 06:07:14;;;;;;;16.00;12.20;;;1.30;99.90;;;;;;4961606;28;20134;-87
2021/03/18 06:09:40;;;;;;;15.18;11.40;;;1.30;99.90;;;;;;4980393;28;20051;-87
2021/03/18 06:12:07;;;;;;;16.15;11.63;;;1.40;99.90;;;;;;4959817;28;20055;-86
2021/03/18 06:14:33;;;;;;;17.10;11.60;;;1.40;99.90;;;;;;4977404;28;20134;-87
2021/03/18 06:17:00;;;;;;;14.60;10.95;;;1.40;99.90;;;;;;4977078;28;20138;-86
2021/03/18 06:19:27;;;;;;;13.70;10.35;;;1.50;99.90;;;;;;4977139;28;20047;-86
2021/03/18 06:21:58;;;;;;;15.73;10.40;;;1.50;99.90;;;;;;4975970;28;20106;-87
2021/03/18 06:24:27;;;;;;;14.38;10.95;;;1.50;99.90;;;;;;4960378;28;20166;-87
2021/03/18 06:26:55;;;;;;;18.05;10.13;;;1.60;99.90;;;;;;4960049;28;20055;-87
2021/03/18 06:29:28;;;;;;;13.55;9.48;;;1.70;99.90;;;;;;4959813;28;20051;-87
2021/03/18 06:31:56;;;;;;;14.43;10.43;;;1.80;99.90;;;;;;4977073;28;20499;-87
2021/03/18 06:34:58;;;;;;;13.18;8.63;;;1.80;99.90;;;;;;4959726;28;20145;-87
2021/03/18 06:37:46;;;;;;;10.98;9.02;;;1.90;99.90;;;;;;4902752;29;20048;-87
2021/03/18 06:40:14;;;;;;;12.50;9.18;;;1.90;99.90;;;;;;4974034;28;20081;-87
2021/03/18 06:42:50;;;;;;;12.40;9.85;;;2.10;99.90;;;;;;4975672;28;20054;-88
2021/03/18 06:45:17;;;;;;;10.30;9.25;;;2.20;99.90;;;;;;4976041;28;20089;-87
2021/03/18 06:47:50;;;;;;;14.02;9.65;;;2.40;99.90;;;;;;4960103;28;20141;-87
2021/03/18 06:50:29;;;;;;;9.77;8.18;;;2.60;99.90;;;;;;4983796;28;20057;-87
2021/03/18 06:52:56;;;;;;;13.13;8.05;;;2.60;99.90;;;;;;4995664;28;20169;-85
2021/03/18 06:55:33;;;;;;;9.57;7.65;;;2.50;99.90;;;;;;4996464;28;20053;-87
2021/03/18 06:58:20;;;;;;;8.73;7.07;;;2.60;99.90;;;;;;4978614;28;20042;-87
2021/03/18 07:00:52;;;;;;;10.70;7.75;;;2.70;99.90;;;;;;4979055;28;20171;-88
2021/03/18 07:03:30;;;;;;;9.50;7.80;;;2.70;99.90;;;;;;4978743;28;20456;-86
2021/03/18 07:05:58;;;;;;;8.55;7.65;;;2.80;99.90;;;;;;4996009;28;20074;-87
2021/03/18 07:08:30;;;;;;;17.27;14.10;;;2.80;99.90;;;;;;4978597;28;20133;-88
2021/03/18 07:10:58;;;;;;;12.82;10.00;;;2.80;99.90;;;;;;4978742;28;20616;-87
2021/03/18 07:13:30;;;;;;;21.48;13.70;;;2.60;99.90;;;;;;4978673;28;20129;-88
2021/03/18 07:15:58;;;;;;;19.05;11.63;;;2.50;99.90;;;;;;4978628;28;20089;-87
2021/03/18 07:18:27;;;;;;;15.77;9.73;;;2.70;99.90;;;;;;4978633;28;20042;-87
2021/03/18 07:21:11;;;;;;;12.45;9.10;;;2.60;99.90;;;;;;4979208;28;20057;-87
2021/03/18 07:23:39;;;;;;;35.42;25.70;;;2.80;99.90;;;;;;4980137;28;20134;-87
2021/03/18 07:26:17;;;;;;;27.95;19.98;;;2.90;99.90;;;;;;5007834;28;20495;-87
2021/03/18 07:28:46;;;;;;;32.47;22.35;;;2.90;99.90;;;;;;4995400;28;20054;-86
2021/03/18 07:31:13;;;;;;;22.58;13.00;;;3.00;99.90;;;;;;4995370;28;20146;-87
2021/03/18 07:33:40;;;;;;;24.83;15.93;;;3.10;99.90;;;;;;4978246;28;20061;-87
2021/03/18 07:36:07;;;;;;;51.67;26.58;;;3.80;99.90;;;;;;4977766;28;20141;-88
2021/03/18 07:38:36;;;;;;;8.57;7.25;;;5.00;99.90;;;;;;4977815;28;20137;-87
2021/03/18 07:41:04;;;;;;;19.58;9.63;;;5.70;99.90;;;;;;4977746;28;20054;-88
2021/03/18 07:43:31;;;;;;;140.80;57.80;;;6.20;99.90;;;;;;4977796;28;20129;-88
2021/03/18 07:45:59;;;;;;;147.57;58.65;;;7.60;99.90;;;;;;4978105;28;20065;-88
2021/03/18 07:48:27;;;;;;;314.60;106.60;;;7.10;99.90;;;;;;4977765;28;20084;-88
2021/03/18 07:50:55;;;;;;;25.42;12.55;;;7.60;99.90;;;;;;4995059;28;20089;-88
2021/03/18 07:53:23;;;;;;;12.75;8.65;;;8.00;99.90;;;;;;4978469;28;20104;-88
2021/03/18 07:55:51;;;;;;;42.42;21.73;;;8.50;99.90;;;;;;4977894;28;20053;-88
2021/03/18 07:58:38;;;;;;;53.50;29.08;;;9.10;99.90;;;;;;4994935;28;20456;-88
2021/03/18 08:01:06;;;;;;;307.92;122.15;;;9.20;99.90;;;;;;4994897;28;20499;-87
2021/03/18 08:03:33;;;;;;;414.73;169.15;;;7.70;99.90;;;;;;4977789;28;20053;-88
2021/03/18 08:06:00;;;;;;;499.80;180.25;;;6.60;99.90;;;;;;4977347;28;20082;-87
2021/03/18 08:08:33;;;;;;;150.68;52.70;;;5.70;99.90;;;;;;4994429;28;20062;-87
2021/03/18 08:11:15;;;;;;;170.93;61.47;;;5.20;99.90;;;;;;4994568;28;20105;-87
2021/03/18 08:13:44;;;;;;;129.90;46.25;;;4.80;99.90;;;;;;4977454;28;20074;-87
2021/03/18 08:16:30;;;;;;;143.93;54.90;;;4.50;99.90;;;;;;4977470;28;20140;-87
2021/03/18 08:18:57;;;;;;;248.52;106.70;;;4.20;99.90;;;;;;4977508;28;20057;-87
2021/03/18 08:21:46;;;;;;;203.15;91.75;;;4.10;99.90;;;;;;4977500;28;20054;-86
2021/03/18 08:24:15;;;;;;;28.75;15.45;;;4.10;99.90;;;;;;4994574;28;20550;-87
2021/03/18 08:27:00;;;;;;;14.75;10.23;;;4.50;99.90;;;;;;4977733;28;20054;-87
2021/03/18 08:29:45;;;;;;;26.25;16.88;;;5.60;99.90;;;;;;4977737;28;20466;-87
2021/03/18 08:32:29;;;;;;;15.32;11.50;;;7.00;99.90;;;;;;4977518;28;20058;-87
2021/03/18 08:35:08;;;;;;;11.80;9.52;;;8.10;99.90;;;;;;4977152;28;20050;-87
2021/03/18 08:38:13;;;;;;;7.72;6.63;;;8.40;99.90;;;;;;4980322;28;20054;-87
2021/03/18 08:40:39;;;;;;;5.78;4.82;;;8.50;99.90;;;;;;5003976;28;20411;-86
2021/03/18 08:43:07;;;;;;;6.22;3.75;;;9.60;99.90;;;;;;4984737;28;20141;-87
2021/03/18 08:45:37;;;;;;;3.55;3.05;;;11.00;99.90;;;;;;4993826;28;20054;-87
2021/03/18 08:48:13;;;;;;;6.18;2.75;;;11.40;96.60;;;;;;4993938;28;20058;-88
2021/03/18 08:50:39;;;;;;;5.18;2.67;;;11.30;95.00;;;;;;4976760;28;20141;-88
2021/03/18 08:53:26;;;;;;;3.17;2.80;;;11.20;93.50;;;;;;4993990;28;20137;-87
2021/03/18 08:55:52;;;;;;;2.95;2.85;;;11.90;90.10;;;;;;4976299;28;20137;-87
2021/03/18 08:58:19;;;;;;;2.72;2.53;;;11.40;87.00;;;;;;4976917;28;20159;-87
2021/03/18 09:00:45;;;;;;;25.35;4.13;;;11.40;87.90;;;;;;4976812;28;20142;-87
2021/03/18 09:03:17;;;;;;;2.55;2.38;;;11.80;89.80;;;;;;4977124;28;20053;-87
2021/03/18 09:05:58;;;;;;;4.95;2.70;;;12.40;86.80;;;;;;4976692;28;20057;-88
2021/03/18 09:08:26;;;;;;;14.27;3.55;;;13.70;81.60;;;;;;4976764;28;20046;-88
2021/03/18 09:10:54;;;;;;;53.83;5.97;;;13.80;78.30;;;;;;4993862;28;20084;-88
2021/03/18 09:13:23;;;;;;;5.72;3.42;;;14.00;78.50;;;;;;4965506;28;20055;-88
2021/03/18 09:15:53;;;;;;;13.73;3.97;;;13.90;79.50;;;;;;4968505;28;20534;-88
2021/03/18 09:18:27;;;;;;;4.55;2.45;;;13.90;76.10;;;;;;4983917;28;20415;-87
2021/03/18 09:21:00;;;;;;;5.30;2.50;;;14.10;71.40;;;;;;4977901;28;20097;-87
2021/03/18 09:23:31;;;;;;;14.77;3.15;;;13.80;70.80;;;;;;4961082;28;20475;-88
2021/03/18 09:26:00;;;;;;;2.20;2.05;;;14.10;70.80;;;;;;4978139;28;20256;-88
2021/03/18 09:28:44;;;;;;;2.65;1.95;;;14.70;66.40;;;;;;4978263;28;20054;-87
2021/03/18 09:31:11;;;;;;;2.00;1.90;;;15.40;62.90;;;;;;4977863;28;20086;-88
2021/03/18 09:33:40;;;;;;;2.13;1.90;;;15.70;58.90;;;;;;4960695;28;20484;-88
2021/03/18 09:36:13;;;;;;;8.75;2.17;;;17.70;58.30;;;;;;4977000;28;20054;-88
2021/03/18 09:39:01;;;;;;;3.25;2.00;;;17.40;57.90;;;;;;4962353;28;20043;-88
2021/03/18 09:41:31;;;;;;;3.20;2.00;;;15.80;56.20;;;;;;4977877;28;20491;-88
2021/03/18 09:44:20;;;;;;;5.57;2.10;;;16.40;56.70;;;;;;4977530;28;20050;-89
2021/03/18 09:47:07;;;;;;;11.55;2.38;;;18.40;52.70;;;;;;4961165;28;20053;-88
2021/03/18 09:49:39;;;;;;;13.25;2.33;;;18.90;52.60;;;;;;4977705;28;20047;-88
2021/03/18 09:52:07;;;;;;;2.22;1.90;;;16.60;52.60;;;;;;4960454;28;20129;-88
2021/03/18 09:54:35;;;;;;;1.85;1.73;;;15.30;54.70;;;;;;4961124;28;20151;-88
2021/03/18 09:57:04;;;;;;;11.15;2.65;;;15.60;56.60;;;;;;4974083;28;20086;-88
2021/03/18 09:59:31;;;;;;;3.20;1.95;;;15.30;57.80;;;;;;4964417;28;20563;-88
2021/03/18 10:01:57;;;;;;;2.88;1.65;;;15.60;56.90;;;;;;4960598;28;20078;-89
2021/03/18 10:04:24;;;;;;;1.75;1.65;;;17.00;53.30;;;;;;4960776;28;20050;-88
2021/03/18 10:06:57;;;;;;;9.02;2.42;;;17.20;51.00;;;;;;4960518;28;20129;-88
2021/03/18 10:09:27;;;;;;;4.53;1.60;;;17.20;50.70;;;;;;4960735;28;20097;-87
2021/03/18 10:11:54;;;;;;;37.92;3.92;;;16.20;52.80;;;;;;4960420;28;20054;-87
2021/03/18 10:14:22;;;;;;;2.42;1.80;;;14.90;54.00;;;;;;4960390;28;20047;-87
2021/03/18 10:17:36;;;;;;;4.47;2.03;;;13.40;56.80;;;;;;4962541;28;20149;-88
2021/03/18 10:20:36;;;;;;;11.73;3.13;;;12.00;59.80;;;;;;4977095;28;20058;-87
2021/03/18 10:23:10;;;;;;;6.25;2.60;;;10.80;62.70;;;;;;4918099;28;20105;-87
2021/03/18 10:25:38;;;;;;;2.75;2.28;;;9.50;67.20;;;;;;4959013;28;20058;-87
2021/03/18 10:28:12;;;;;;;1.80;1.70;;;8.90;68.80;;;;;;4976713;28;20098;-86
2021/03/18 10:30:41;;;;;;;1.92;1.55;;;8.90;70.40;;;;;;4959906;28;20047;-86
2021/03/18 10:33:19;;;;;;;3.80;2.10;;;9.40;70.50;;;;;;4976642;28;20502;-87
2021/03/18 10:35:58;;;;;;;38.00;5.07;;;9.10;70.40;;;;;;4959554;28;20066;-86
2021/03/18 10:38:31;;;;;;;15.48;4.65;;;9.00;69.50;;;;;;4959881;28;20459;-87
2021/03/18 10:40:59;;;;;;;15.63;5.25;;;10.50;65.10;;;;;;4959839;28;20109;-87
2021/03/18 10:43:29;;;;;;;6.43;4.97;;;10.50;64.10;;;;;;4976680;28;20537;-87
2021/03/18 10:46:02;;;;;;;2.30;1.85;;;9.60;64.40;;;;;;4959625;28;20133;-87
2021/03/18 10:48:31;;;;;;;8.65;4.10;;;9.10;65.70;;;;;;4959554;28;20071;-87
2021/03/18 10:51:07;;;;;;;4.55;2.10;;;8.40;68.90;;;;;;4960007;28;20068;-87
2021/03/18 10:53:35;;;;;;;2.50;2.25;;;8.30;72.30;;;;;;4959379;28;20078;-87
2021/03/18 10:56:11;;;;;;;4.80;1.92;;;8.10;73.20;;;;;;4959828;28;20050;-87
2021/03/18 10:58:37;;;;;;;5.50;1.80;;;8.40;74.70;;;;;;4959306;28;20046;-86
2021/03/18 11:01:10;;;;;;;2.28;1.95;;;8.40;73.00;;;;;;4975047;28;20475;-86
2021/03/18 11:03:39;;;;;;;3.47;2.17;;;8.40;76.50;;;;;;4959424;28;20459;-87
2021/03/18 11:06:33;;;;;;;5.40;2.08;;;8.40;78.70;;;;;;4975845;28;20422;-86
2021/03/18 11:09:01;;;;;;;2.58;2.22;;;9.80;78.20;;;;;;4956265;28;20046;-86
2021/03/18 11:11:29;;;;;;;3.92;2.25;;;11.00;72.70;;;;;;4974824;28;20387;-87
2021/03/18 11:14:06;;;;;;;7.93;2.42;;;12.40;66.60;;;;;;4961519;28;20141;-87
2021/03/18 11:16:33;;;;;;;2.55;2.22;;;13.50;63.10;;;;;;4959475;28;20134;-87
2021/03/18 11:19:05;;;;;;;9.05;2.95;;;15.00;62.20;;;;;;4958347;28;20050;-87
2021/03/18 11:21:43;;;;;;;2.55;2.00;;;16.70;55.60;;;;;;4973237;28;20055;-87
2021/03/18 11:24:14;;;;;;;3.03;2.10;;;17.20;51.60;;;;;;4958894;28;20046;-87
2021/03/18 11:27:02;;;;;;;4.03;2.08;;;15.80;51.80;;;;;;4975852;28;20137;-87
2021/03/18 11:29:31;;;;;;;3.85;1.98;;;15.00;53.20;;;;;;4958521;28;20085;-86
2021/03/18 11:32:02;;;;;;;2.67;1.98;;;15.20;53.70;;;;;;4958338;28;20050;-87
2021/03/18 11:34:32;;;;;;;12.35;2.08;;;14.80;52.30;;;;;;4958470;28;20555;-87
2021/03/18 11:37:04;;;;;;;9.25;2.08;;;13.60;54.10;;;;;;4958182;28;20176;-86
2021/03/18 11:39:31;;;;;;;6.05;2.05;;;12.00;59.00;;;;;;4958364;28;20456;-86
2021/03/18 11:41:59;;;;;;;6.55;2.30;;;10.80;65.20;;;;;;4975231;28;20086;-86
2021/03/18 11:44:29;;;;;;;2.55;1.80;;;9.70;70.00;;;;;;4957970;28;20051;-85
2021/03/18 11:47:06;;;;;;;5.75;2.22;;;8.90;78.70;;;;;;4957305;28;20050;-85
2021/03/18 11:49:34;;;;;;;2.08;1.88;;;8.20;88.40;;;;;;4957055;28;20073;-86
2021/03/18 11:52:03;;;;;;;2.10;2.00;;;7.70;94.50;;;;;;4973186;28;20566;-86
2021/03/18 11:54:30;;;;;;;2.63;2.28;;;7.30;99.90;;;;;;4957665;28;20110;-86
2021/03/18 11:56:56;;;;;;;1.90;1.80;;;7.00;99.90;;;;;;4956980;28;20132;-86
2021/03/18 11:59:23;;;;;;;2.05;1.85;;;6.80;99.90;;;;;;4974236;28;20381;-86
2021/03/18 12:01:49;;;;;;;1.80;1.70;;;6.80;99.90;;;;;;4974028;28;20051;-86
2021/03/18 12:04:16;;;;;;;1.60;1.50;;;7.90;99.90;;;;;;4974735;28;20518;-86
2021/03/18 12:06:43;;;;;;;2.75;2.13;;;10.30;99.90;;;;;;4975260;28;20046;-87
2021/03/18 12:09:09;;;;;;;5.47;2.22;;;12.50;98.30;;;;;;4950223;28;20102;-87
2021/03/18 12:11:35;;;;;;;4.15;1.90;;;14.10;76.90;;;;;;4958119;28;20081;-86
2021/03/18 12:14:02;;;;;;;3.28;1.63;;;13.70;70.10;;;;;;4957459;28;20047;-87
2021/03/18 12:16:29;;;;;;;3.22;1.90;;;13.70;64.40;;;;;;4958022;28;20138;-87
2021/03/18 12:18:55;;;;;;;2.05;1.85;;;12.30;72.60;;;;;;4974996;28;20106;-88
2021/03/18 12:21:22;;;;;;;2.00;1.90;;;12.20;69.20;;;;;;4973421;28;20142;-87
2021/03/18 12:23:49;;;;;;;1.45;1.45;;;12.50;72.70;;;;;;4972816;28;20137;-88
2021/03/18 12:26:15;;;;;;;10.60;3.03;;;13.30;70.00;;;;;;4974036;28;20282;-87
2021/03/18 12:28:41;;;;;;;12.95;2.78;;;13.30;68.80;;;;;;4960931;28;20074;-88
2021/03/18 12:31:08;;;;;;;5.40;1.92;;;13.20;67.40;;;;;;4961483;28;20426;-87
2021/03/18 12:33:34;;;;;;;8.95;2.13;;;12.10;72.60;;;;;;4957287;28;20074;-86
2021/03/18 12:36:01;;;;;;;1.73;1.40;;;11.10;78.20;;;;;;4956824;28;20070;-87
2021/03/18 12:38:27;;;;;;;2.15;1.95;;;11.20;79.50;;;;;;4956825;28;20129;-86
2021/03/18 12:40:54;;;;;;;2.25;1.98;;;11.00;85.30;;;;;;4956793;28;20054;-86
2021/03/18 12:43:21;;;;;;;2.05;1.95;;;9.50;86.30;;;;;;4956620;28;20551;-86
2021/03/18 12:45:47;;;;;;;2.17;2.00;;;9.00;91.50;;;;;;4973869;28;20058;-87
2021/03/18 12:48:14;;;;;;;18.08;8.93;;;8.70;87.20;;;;;;4956202;28;20062;-86
2021/03/18 12:50:42;;;;;;;2.20;2.00;;;8.20;93.60;;;;;;4956785;28;20136;-87
2021/03/18 12:53:08;;;;;;;5.38;1.60;;;8.30;88.10;;;;;;4964737;28;20086;-87
2021/03/18 12:55:35;;;;;;;2.33;1.75;;;8.20;87.40;;;;;;4956558;28;20071;-87
2021/03/18 12:58:02;;;;;;;12.15;5.47;;;8.40;89.10;;;;;;4956565;28;20085;-87
2021/03/18 13:00:34;;;;;;;5.32;3.58;;;8.40;91.60;;;;;;4974267;28;20486;-87